sensor_id;sensor_type;location;lat;lon;timestamp;pressure;altitude;pressure_sealevel;temperature;humidity
78121;BME280;67585;44.802;10.332;2023-02-28T00:00:22;101628.56;;;5.66;60.54
78121;BME280;67585;44.802;10.332;2023-02-28T00:02:48;101630.97;;;5.54;59.83
78121;BME280;67585;44.802;10.332;2023-02-28T00:05:16;101636.00;;;5.84;59.99
78121;BME280;67585;44.802;10.332;2023-02-28T00:07:42;101631.47;;;5.23;61.40
78121;BME280;67585;44.802;10.332;2023-02-28T00:10:10;101608.44;;;5.22;61.04
78121;BME280;67585;44.802;10.332;2023-02-28T00:12:36;101610.50;;;5.20;61.81
78121;BME280;67585;44.802;10.332;2023-02-28T00:15:05;101608.91;;;4.90;62.61
78121;BME280;67585;44.802;10.332;2023-02-28T00:17:31;101622.63;;;5.22;61.02
78121;BME280;67585;44.802;10.332;2023-02-28T00:19:56;101642.22;;;5.43;61.19
78121;BME280;67585;44.802;10.332;2023-02-28T00:22:26;101640.13;;;5.31;60.58
78121;BME280;67585;44.802;10.332;2023-02-28T00:24:52;101642.41;;;5.41;60.24
78121;BME280;67585;44.802;10.332;2023-02-28T00:27:17;101634.81;;;5.38;60.69
78121;BME280;67585;44.802;10.332;2023-02-28T00:29:43;101654.53;;;5.37;61.04
78121;BME280;67585;44.802;10.332;2023-02-28T00:32:08;101649.88;;;5.52;60.73
78121;BME280;67585;44.802;10.332;2023-02-28T00:34:33;101624.81;;;5.53;60.70
78121;BME280;67585;44.802;10.332;2023-02-28T00:37:07;101633.66;;;5.61;59.97
78121;BME280;67585;44.802;10.332;2023-02-28T00:39:38;101615.53;;;5.49;60.96
78121;BME280;67585;44.802;10.332;2023-02-28T00:42:04;101636.41;;;5.26;61.21
78121;BME280;67585;44.802;10.332;2023-02-28T00:44:30;101639.38;;;5.44;60.29
78121;BME280;67585;44.802;10.332;2023-02-28T00:46:57;101653.59;;;5.51;59.95
78121;BME280;67585;44.802;10.332;2023-02-28T00:49:23;101636.31;;;5.54;60.79
78121;BME280;67585;44.802;10.332;2023-02-28T00:51:49;101624.81;;;5.53;60.44
78121;BME280;67585;44.802;10.332;2023-02-28T00:54:15;101630.22;;;5.73;59.55
78121;BME280;67585;44.802;10.332;2023-02-28T00:56:41;101657.28;;;6.12;58.57
78121;BME280;67585;44.802;10.332;2023-02-28T00:59:06;101638.38;;;5.52;60.80
78121;BME280;67585;44.802;10.332;2023-02-28T01:01:32;101627.94;;;5.77;59.38
78121;BME280;67585;44.802;10.332;2023-02-28T01:03:57;101634.22;;;6.11;58.56
78121;BME280;67585;44.802;10.332;2023-02-28T01:06:23;101655.22;;;6.07;59.22
78121;BME280;67585;44.802;10.332;2023-02-28T01:08:48;101639.28;;;5.86;59.57
78121;BME280;67585;44.802;10.332;2023-02-28T01:11:16;101666.69;;;6.01;58.76
78121;BME280;67585;44.802;10.332;2023-02-28T01:13:43;101656.53;;;5.76;58.58
78121;BME280;67585;44.802;10.332;2023-02-28T01:16:09;101645.06;;;5.83;59.49
78121;BME280;67585;44.802;10.332;2023-02-28T01:18:35;101649.03;;;6.20;58.10
78121;BME280;67585;44.802;10.332;2023-02-28T01:21:05;101650.94;;;5.65;60.03
78121;BME280;67585;44.802;10.332;2023-02-28T01:23:31;101643.88;;;6.05;57.35
78121;BME280;67585;44.802;10.332;2023-02-28T01:25:57;101635.59;;;5.93;58.94
78121;BME280;67585;44.802;10.332;2023-02-28T01:28:22;101616.78;;;5.60;58.28
78121;BME280;67585;44.802;10.332;2023-02-28T01:30:51;101647.88;;;5.61;58.55
78121;BME280;67585;44.802;10.332;2023-02-28T01:33:16;101648.28;;;5.71;58.70
78121;BME280;67585;44.802;10.332;2023-02-28T01:35:41;101647.88;;;5.61;57.98
78121;BME280;67585;44.802;10.332;2023-02-28T01:38:07;101646.28;;;5.87;58.09
78121;BME280;67585;44.802;10.332;2023-02-28T01:40:32;101650.06;;;6.06;56.94
78121;BME280;67585;44.802;10.332;2023-02-28T01:42:58;101657.19;;;5.92;57.83
78121;BME280;67585;44.802;10.332;2023-02-28T01:45:27;101648.84;;;6.28;56.92
78121;BME280;67585;44.802;10.332;2023-02-28T01:47:56;101620.84;;;5.97;57.08
78121;BME280;67585;44.802;10.332;2023-02-28T01:50:28;101652.69;;;5.92;57.44
78121;BME280;67585;44.802;10.332;2023-02-28T01:52:56;101626.63;;;5.53;58.72
78121;BME280;67585;44.802;10.332;2023-02-28T01:55:25;101638.41;;;5.65;58.11
78121;BME280;67585;44.802;10.332;2023-02-28T01:57:57;101633.72;;;5.81;57.33
78121;BME280;67585;44.802;10.332;2023-02-28T02:00:25;101644.97;;;5.63;57.96
78121;BME280;67585;44.802;10.332;2023-02-28T02:02:56;101645.63;;;5.71;57.07
78121;BME280;67585;44.802;10.332;2023-02-28T02:05:25;101635.72;;;5.59;58.01
78121;BME280;67585;44.802;10.332;2023-02-28T02:08:02;101637.81;;;5.76;55.97
78121;BME280;67585;44.802;10.332;2023-02-28T02:10:44;101646.56;;;5.50;57.08
78121;BME280;67585;44.802;10.332;2023-02-28T02:16:04;101640.22;;;5.51;56.43
78121;BME280;67585;44.802;10.332;2023-02-28T02:21:16;101639.03;;;5.67;53.89
78121;BME280;67585;44.802;10.332;2023-02-28T02:36:58;101629.53;;;5.51;53.22
78121;BME280;67585;44.802;10.332;2023-02-28T02:45:35;101645.44;;;5.31;53.58
78121;BME280;67585;44.802;10.332;2023-02-28T02:48:05;101651.97;;;5.64;51.81
78121;BME280;67585;44.802;10.332;2023-02-28T02:50:42;101635.34;;;5.68;50.67
78121;BME280;67585;44.802;10.332;2023-02-28T02:53:10;101647.97;;;5.94;51.51
78121;BME280;67585;44.802;10.332;2023-02-28T02:55:39;101638.22;;;5.73;52.27
78121;BME280;67585;44.802;10.332;2023-02-28T02:58:09;101622.78;;;5.69;52.04
78121;BME280;67585;44.802;10.332;2023-02-28T03:00:41;101642.66;;;5.53;51.88
78121;BME280;67585;44.802;10.332;2023-02-28T03:03:09;101634.97;;;5.78;51.19
78121;BME280;67585;44.802;10.332;2023-02-28T03:05:42;101647.69;;;5.76;50.29
78121;BME280;67585;44.802;10.332;2023-02-28T03:08:10;101640.88;;;5.19;52.18
78121;BME280;67585;44.802;10.332;2023-02-28T03:10:44;101639.38;;;5.51;52.02
78121;BME280;67585;44.802;10.332;2023-02-28T03:15:54;101647.38;;;5.51;51.72
78121;BME280;67585;44.802;10.332;2023-02-28T03:18:36;101645.34;;;5.53;51.73
78121;BME280;67585;44.802;10.332;2023-02-28T03:26:26;101645.81;;;5.70;49.76
78121;BME280;67585;44.802;10.332;2023-02-28T03:29:09;101647.00;;;5.61;50.71
78121;BME280;67585;44.802;10.332;2023-02-28T03:31:51;101645.19;;;5.61;51.24
78121;BME280;67585;44.802;10.332;2023-02-28T03:34:27;101651.28;;;5.48;52.09
78121;BME280;67585;44.802;10.332;2023-02-28T03:36:58;101644.25;;;5.34;52.98
78121;BME280;67585;44.802;10.332;2023-02-28T03:39:37;101654.81;;;5.49;52.05
78121;BME280;67585;44.802;10.332;2023-02-28T03:42:09;101650.69;;;5.11;53.11
78121;BME280;67585;44.802;10.332;2023-02-28T03:44:41;101645.38;;;5.60;52.79
78121;BME280;67585;44.802;10.332;2023-02-28T03:47:14;101648.75;;;5.33;53.56
78121;BME280;67585;44.802;10.332;2023-02-28T03:49:48;101641.88;;;5.11;52.63
78121;BME280;67585;44.802;10.332;2023-02-28T03:52:15;101655.69;;;5.21;53.97
78121;BME280;67585;44.802;10.332;2023-02-28T03:54:45;101638.94;;;4.99;53.82
78121;BME280;67585;44.802;10.332;2023-02-28T03:57:18;101655.00;;;5.47;52.98
78121;BME280;67585;44.802;10.332;2023-02-28T03:59:52;101659.38;;;5.20;52.45
78121;BME280;67585;44.802;10.332;2023-02-28T04:02:19;101661.38;;;5.11;53.97
78121;BME280;67585;44.802;10.332;2023-02-28T04:04:45;101655.69;;;5.21;53.00
78121;BME280;67585;44.802;10.332;2023-02-28T04:07:14;101614.47;;;5.37;52.41
78121;BME280;67585;44.802;10.332;2023-02-28T04:09:40;101657.59;;;5.27;52.22
78121;BME280;67585;44.802;10.332;2023-02-28T04:12:06;101646.78;;;5.55;51.95
78121;BME280;67585;44.802;10.332;2023-02-28T04:14:31;101655.88;;;5.68;51.80
78121;BME280;67585;44.802;10.332;2023-02-28T04:16:56;101659.88;;;5.85;51.48
78121;BME280;67585;44.802;10.332;2023-02-28T04:19:22;101652.50;;;5.46;50.87
78121;BME280;67585;44.802;10.332;2023-02-28T04:21:50;101659.75;;;5.52;52.16
78121;BME280;67585;44.802;10.332;2023-02-28T04:24:27;101648.63;;;5.48;51.30
78121;BME280;67585;44.802;10.332;2023-02-28T04:26:55;101670.31;;;5.80;51.03
78121;BME280;67585;44.802;10.332;2023-02-28T04:29:24;101667.81;;;5.72;50.05
78121;BME280;67585;44.802;10.332;2023-02-28T04:31:49;101666.00;;;5.24;52.21
78121;BME280;67585;44.802;10.332;2023-02-28T04:34:16;101671.53;;;5.23;52.61
78121;BME280;67585;44.802;10.332;2023-02-28T04:36:41;101630.06;;;5.27;50.83
78121;BME280;67585;44.802;10.332;2023-02-28T04:39:07;101675.91;;;5.37;52.34
78121;BME280;67585;44.802;10.332;2023-02-28T04:41:34;101680.94;;;5.53;51.19
78121;BME280;67585;44.802;10.332;2023-02-28T04:44:00;101668.03;;;5.22;52.00
78121;BME280;67585;44.802;10.332;2023-02-28T04:46:25;101683.84;;;5.24;52.01
78121;BME280;67585;44.802;10.332;2023-02-28T04:48:50;101677.81;;;5.50;51.41
78121;BME280;67585;44.802;10.332;2023-02-28T04:51:18;101661.75;;;5.43;51.86
78121;BME280;67585;44.802;10.332;2023-02-28T04:53:43;101674.00;;;5.72;51.33
78121;BME280;67585;44.802;10.332;2023-02-28T04:56:12;101679.78;;;5.28;52.75
78121;BME280;67585;44.802;10.332;2023-02-28T04:58:38;101671.03;;;5.06;51.61
78121;BME280;67585;44.802;10.332;2023-02-28T05:01:17;101677.63;;;5.51;51.14
78121;BME280;67585;44.802;10.332;2023-02-28T05:03:43;101674.09;;;5.44;51.05
78121;BME280;67585;44.802;10.332;2023-02-28T05:06:10;101670.16;;;5.40;51.95
78121;BME280;67585;44.802;10.332;2023-02-28T05:08:35;101681.00;;;5.73;50.89
78121;BME280;67585;44.802;10.332;2023-02-28T05:11:02;101666.38;;;5.69;50.77
78121;BME280;67585;44.802;10.332;2023-02-28T05:13:28;101650.72;;;5.60;51.19
78121;BME280;67585;44.802;10.332;2023-02-28T05:15:54;101680.19;;;5.31;51.57
78121;BME280;67585;44.802;10.332;2023-02-28T05:18:19;101665.50;;;5.14;52.29
78121;BME280;67585;44.802;10.332;2023-02-28T05:20:45;101683.16;;;5.08;52.23
78121;BME280;67585;44.802;10.332;2023-02-28T05:23:12;101662.41;;;5.10;52.83
78121;BME280;67585;44.802;10.332;2023-02-28T05:25:38;101681.63;;;5.27;52.94
78121;BME280;67585;44.802;10.332;2023-02-28T05:28:04;101687.59;;;5.29;51.83
78121;BME280;67585;44.802;10.332;2023-02-28T05:30:29;101685.28;;;5.26;51.73
78121;BME280;67585;44.802;10.332;2023-02-28T05:32:55;101680.81;;;5.33;51.68
78121;BME280;67585;44.802;10.332;2023-02-28T05:35:20;101685.78;;;5.37;51.78
78121;BME280;67585;44.802;10.332;2023-02-28T05:37:46;101668.00;;;5.16;52.17
78121;BME280;67585;44.802;10.332;2023-02-28T05:40:11;101689.28;;;5.85;50.72
78121;BME280;67585;44.802;10.332;2023-02-28T05:42:37;101685.41;;;5.94;50.98
78121;BME280;67585;44.802;10.332;2023-02-28T05:45:06;101688.66;;;5.83;51.41
78121;BME280;67585;44.802;10.332;2023-02-28T05:47:32;101671.19;;;5.04;52.04
78121;BME280;67585;44.802;10.332;2023-02-28T05:49:57;101692.91;;;5.23;52.31
78121;BME280;67585;44.802;10.332;2023-02-28T05:52:23;101680.47;;;5.08;52.68
78121;BME280;67585;44.802;10.332;2023-02-28T05:54:48;101675.44;;;4.92;52.96
78121;BME280;67585;44.802;10.332;2023-02-28T05:57:14;101694.31;;;5.19;53.51
78121;BME280;67585;44.802;10.332;2023-02-28T05:59:40;101696.56;;;5.56;51.66
78121;BME280;67585;44.802;10.332;2023-02-28T06:02:11;101700.66;;;5.52;52.17
78121;BME280;67585;44.802;10.332;2023-02-28T06:04:37;101678.28;;;5.19;52.12
78121;BME280;67585;44.802;10.332;2023-02-28T06:07:02;101698.00;;;5.18;53.30
78121;BME280;67585;44.802;10.332;2023-02-28T06:09:28;101713.91;;;5.74;52.09
78121;BME280;67585;44.802;10.332;2023-02-28T06:11:54;101697.94;;;5.39;52.65
78121;BME280;67585;44.802;10.332;2023-02-28T06:14:19;101722.19;;;5.09;55.03
78121;BME280;67585;44.802;10.332;2023-02-28T06:16:45;101713.94;;;5.04;55.78
78121;BME280;67585;44.802;10.332;2023-02-28T06:19:11;101717.28;;;5.13;56.67
78121;BME280;67585;44.802;10.332;2023-02-28T06:21:37;101720.41;;;4.88;56.51
78121;BME280;67585;44.802;10.332;2023-02-28T06:24:03;101720.38;;;4.39;59.03
78121;BME280;67585;44.802;10.332;2023-02-28T06:26:29;101720.84;;;4.70;60.14
78121;BME280;67585;44.802;10.332;2023-02-28T06:28:55;101733.59;;;4.47;60.31
78121;BME280;67585;44.802;10.332;2023-02-28T06:31:22;101719.69;;;4.52;61.57
78121;BME280;67585;44.802;10.332;2023-02-28T06:33:48;101739.94;;;4.67;60.75
78121;BME280;67585;44.802;10.332;2023-02-28T06:36:15;101730.94;;;3.89;64.21
78121;BME280;67585;44.802;10.332;2023-02-28T06:38:41;101729.94;;;4.12;62.77
78121;BME280;67585;44.802;10.332;2023-02-28T06:41:07;101742.88;;;3.93;63.54
78121;BME280;67585;44.802;10.332;2023-02-28T06:43:36;101741.31;;;4.20;63.14
78121;BME280;67585;44.802;10.332;2023-02-28T06:46:05;101738.66;;;5.48;65.50
78121;BME280;67585;44.802;10.332;2023-02-28T06:48:31;101748.78;;;4.10;63.43
78121;BME280;67585;44.802;10.332;2023-02-28T06:51:08;101745.88;;;3.90;65.49
78121;BME280;67585;44.802;10.332;2023-02-28T06:53:34;101757.94;;;3.71;65.90
78121;BME280;67585;44.802;10.332;2023-02-28T06:55:59;101735.53;;;4.17;64.79
78121;BME280;67585;44.802;10.332;2023-02-28T06:58:29;101739.66;;;4.19;64.07
78121;BME280;67585;44.802;10.332;2023-02-28T07:00:54;101767.47;;;4.32;63.37
78121;BME280;67585;44.802;10.332;2023-02-28T07:03:20;101759.72;;;4.37;62.48
78121;BME280;67585;44.802;10.332;2023-02-28T07:05:45;101740.31;;;4.43;62.32
78121;BME280;67585;44.802;10.332;2023-02-28T07:08:11;101745.59;;;4.36;62.39
78121;BME280;67585;44.802;10.332;2023-02-28T07:10:39;101768.28;;;4.11;63.59
78121;BME280;67585;44.802;10.332;2023-02-28T07:13:06;101751.47;;;3.95;64.30
78121;BME280;67585;44.802;10.332;2023-02-28T07:15:35;101760.94;;;4.34;63.39
78121;BME280;67585;44.802;10.332;2023-02-28T07:18:01;101744.00;;;4.20;62.89
78121;BME280;67585;44.802;10.332;2023-02-28T07:20:27;101772.06;;;4.38;63.27
78121;BME280;67585;44.802;10.332;2023-02-28T07:22:52;101735.06;;;4.49;61.52
78121;BME280;67585;44.802;10.332;2023-02-28T07:25:25;101738.97;;;4.54;61.79
78121;BME280;67585;44.802;10.332;2023-02-28T07:27:52;101734.09;;;4.57;60.45
78121;BME280;67585;44.802;10.332;2023-02-28T07:30:18;101745.75;;;4.78;60.24
78121;BME280;67585;44.802;10.332;2023-02-28T07:32:43;101736.84;;;4.64;60.29
78121;BME280;67585;44.802;10.332;2023-02-28T07:35:09;101760.53;;;5.02;59.41
78121;BME280;67585;44.802;10.332;2023-02-28T07:37:34;101766.91;;;5.01;59.42
78121;BME280;67585;44.802;10.332;2023-02-28T07:40:07;101768.22;;;4.83;59.89
78121;BME280;67585;44.802;10.332;2023-02-28T07:42:34;101756.00;;;4.96;59.59
78121;BME280;67585;44.802;10.332;2023-02-28T07:45:00;101752.75;;;4.79;58.14
78121;BME280;67585;44.802;10.332;2023-02-28T07:47:26;101772.38;;;4.92;59.01
78121;BME280;67585;44.802;10.332;2023-02-28T07:49:51;101751.66;;;4.95;60.97
78121;BME280;67585;44.802;10.332;2023-02-28T07:52:17;101734.75;;;4.59;59.58
78121;BME280;67585;44.802;10.332;2023-02-28T07:54:42;101748.00;;;4.53;60.22
78121;BME280;67585;44.802;10.332;2023-02-28T07:57:08;101772.84;;;4.75;60.03
78121;BME280;67585;44.802;10.332;2023-02-28T07:59:33;101783.91;;;4.50;60.03
78121;BME280;67585;44.802;10.332;2023-02-28T08:01:59;101758.03;;;4.72;59.51
78121;BME280;67585;44.802;10.332;2023-02-28T08:04:24;101774.53;;;5.04;58.61
78121;BME280;67585;44.802;10.332;2023-02-28T08:06:50;101762.97;;;4.97;57.68
78121;BME280;67585;44.802;10.332;2023-02-28T08:09:18;101772.00;;;4.96;58.59
78121;BME280;67585;44.802;10.332;2023-02-28T08:11:44;101766.41;;;4.90;58.31
78121;BME280;67585;44.802;10.332;2023-02-28T08:14:09;101785.06;;;5.12;57.74
78121;BME280;67585;44.802;10.332;2023-02-28T08:16:35;101770.94;;;5.46;57.80
78121;BME280;67585;44.802;10.332;2023-02-28T08:19:00;101773.09;;;5.29;55.67
78121;BME280;67585;44.802;10.332;2023-02-28T08:21:25;101739.81;;;5.04;55.53
78121;BME280;67585;44.802;10.332;2023-02-28T08:23:51;101778.22;;;5.31;54.25
78121;BME280;67585;44.802;10.332;2023-02-28T08:26:17;101790.47;;;5.88;53.18
78121;BME280;67585;44.802;10.332;2023-02-28T08:28:43;101767.72;;;5.64;53.50
78121;BME280;67585;44.802;10.332;2023-02-28T08:31:11;101792.84;;;5.70;54.59
78121;BME280;67585;44.802;10.332;2023-02-28T08:33:40;101753.81;;;5.82;55.24
78121;BME280;67585;44.802;10.332;2023-02-28T08:36:07;101791.31;;;5.54;57.27
78121;BME280;67585;44.802;10.332;2023-02-28T08:38:33;101746.16;;;5.31;55.02
78121;BME280;67585;44.802;10.332;2023-02-28T08:41:00;101794.06;;;6.02;53.94
78121;BME280;67585;44.802;10.332;2023-02-28T08:43:26;101780.75;;;5.39;54.69
78121;BME280;67585;44.802;10.332;2023-02-28T08:45:53;101780.41;;;5.55;53.94
78121;BME280;67585;44.802;10.332;2023-02-28T08:48:19;101776.13;;;5.26;56.05
78121;BME280;67585;44.802;10.332;2023-02-28T08:50:53;101773.66;;;5.25;56.03
78121;BME280;67585;44.802;10.332;2023-02-28T08:53:19;101772.69;;;5.32;55.78
78121;BME280;67585;44.802;10.332;2023-02-28T08:55:45;101796.81;;;5.18;56.81
78121;BME280;67585;44.802;10.332;2023-02-28T08:58:11;101798.25;;;5.48;54.09
78121;BME280;67585;44.802;10.332;2023-02-28T09:00:36;101780.78;;;5.87;52.42
78121;BME280;67585;44.802;10.332;2023-02-28T09:03:02;101748.28;;;5.42;55.93
78121;BME280;67585;44.802;10.332;2023-02-28T09:05:28;101804.63;;;5.47;57.97
78121;BME280;67585;44.802;10.332;2023-02-28T09:07:55;101783.13;;;5.27;57.21
78121;BME280;67585;44.802;10.332;2023-02-28T09:10:20;101808.28;;;5.74;55.06
78121;BME280;67585;44.802;10.332;2023-02-28T09:12:46;101760.84;;;5.48;55.12
78121;BME280;67585;44.802;10.332;2023-02-28T09:15:12;101814.03;;;5.71;57.01
78121;BME280;67585;44.802;10.332;2023-02-28T09:17:38;101778.47;;;5.77;56.40
78121;BME280;67585;44.802;10.332;2023-02-28T09:20:04;101811.50;;;6.46;53.89
78121;BME280;67585;44.802;10.332;2023-02-28T09:22:30;101763.06;;;5.79;53.73
78121;BME280;67585;44.802;10.332;2023-02-28T09:24:55;101809.94;;;6.10;53.14
78121;BME280;67585;44.802;10.332;2023-02-28T09:27:21;101814.94;;;6.33;53.83
78121;BME280;67585;44.802;10.332;2023-02-28T09:29:46;101795.97;;;6.15;54.04
78121;BME280;67585;44.802;10.332;2023-02-28T09:32:12;101787.56;;;5.83;54.69
78121;BME280;67585;44.802;10.332;2023-02-28T09:34:37;101764.31;;;5.42;54.96
78121;BME280;67585;44.802;10.332;2023-02-28T09:37:03;101802.88;;;5.96;55.20
78121;BME280;67585;44.802;10.332;2023-02-28T09:39:28;101795.19;;;5.86;55.44
78121;BME280;67585;44.802;10.332;2023-02-28T09:41:55;101811.75;;;6.03;55.19
78121;BME280;67585;44.802;10.332;2023-02-28T09:44:34;101785.63;;;5.64;55.33
78121;BME280;67585;44.802;10.332;2023-02-28T09:49:52;101814.22;;;5.98;55.07
78121;BME280;67585;44.802;10.332;2023-02-28T09:52:20;101814.09;;;5.78;56.86
78121;BME280;67585;44.802;10.332;2023-02-28T09:54:46;101818.09;;;5.95;54.40
78121;BME280;67585;44.802;10.332;2023-02-28T09:57:32;101816.16;;;5.83;55.13
78121;BME280;67585;44.802;10.332;2023-02-28T10:05:47;101823.69;;;6.01;53.61
78121;BME280;67585;44.802;10.332;2023-02-28T10:08:19;101792.00;;;5.97;53.91
78121;BME280;67585;44.802;10.332;2023-02-28T10:11:01;101781.81;;;6.28;54.25
78121;BME280;67585;44.802;10.332;2023-02-28T10:13:34;101812.81;;;7.17;52.81
78121;BME280;67585;44.802;10.332;2023-02-28T10:16:08;101816.13;;;7.12;51.79
78121;BME280;67585;44.802;10.332;2023-02-28T10:19:44;101815.50;;;7.23;51.21
78121;BME280;67585;44.802;10.332;2023-02-28T10:24:39;101813.44;;;7.05;51.38
78121;BME280;67585;44.802;10.332;2023-02-28T10:27:19;101812.19;;;7.15;51.08
78121;BME280;67585;44.802;10.332;2023-02-28T10:29:47;101819.00;;;7.11;51.68
78121;BME280;67585;44.802;10.332;2023-02-28T10:32:18;101797.75;;;7.16;51.38
78121;BME280;67585;44.802;10.332;2023-02-28T10:34:45;101792.84;;;6.99;51.76
78121;BME280;67585;44.802;10.332;2023-02-28T10:37:16;101794.25;;;7.09;50.76
78121;BME280;67585;44.802;10.332;2023-02-28T10:39:43;101812.56;;;7.45;49.90
78121;BME280;67585;44.802;10.332;2023-02-28T10:44:45;101782.94;;;6.73;52.34
78121;BME280;67585;44.802;10.332;2023-02-28T10:47:17;101814.88;;;7.08;51.93
78121;BME280;67585;44.802;10.332;2023-02-28T10:49:49;101808.06;;;7.45;51.28
78121;BME280;67585;44.802;10.332;2023-02-28T10:52:32;101769.94;;;7.10;52.86
78121;BME280;67585;44.802;10.332;2023-02-28T10:55:21;101812.75;;;7.63;52.03
78121;BME280;67585;44.802;10.332;2023-02-28T10:57:48;101798.59;;;7.30;50.96
78121;BME280;67585;44.802;10.332;2023-02-28T11:00:20;101803.13;;;6.96;51.76
78121;BME280;67585;44.802;10.332;2023-02-28T11:02:47;101792.22;;;6.91;50.81
78121;BME280;67585;44.802;10.332;2023-02-28T11:05:29;101802.53;;;6.87;50.40
78121;BME280;67585;44.802;10.332;2023-02-28T11:08:06;101801.06;;;6.91;51.53
78121;BME280;67585;44.802;10.332;2023-02-28T11:10:36;101749.53;;;6.49;50.97
78121;BME280;67585;44.802;10.332;2023-02-28T11:13:02;101792.81;;;6.86;49.91
78121;BME280;67585;44.802;10.332;2023-02-28T11:15:35;101774.06;;;7.26;49.03
78121;BME280;67585;44.802;10.332;2023-02-28T11:18:30;101787.88;;;7.36;49.78
78121;BME280;67585;44.802;10.332;2023-02-28T11:21:00;101764.78;;;7.15;50.34
78121;BME280;67585;44.802;10.332;2023-02-28T11:23:29;101758.41;;;6.76;49.54
78121;BME280;67585;44.802;10.332;2023-02-28T11:25:59;101755.28;;;7.39;49.59
78121;BME280;67585;44.802;10.332;2023-02-28T11:28:33;101780.88;;;7.93;48.95
78121;BME280;67585;44.802;10.332;2023-02-28T11:31:15;101778.34;;;7.54;48.49
78121;BME280;67585;44.802;10.332;2023-02-28T11:33:44;101775.22;;;7.57;49.17
78121;BME280;67585;44.802;10.332;2023-02-28T11:38:42;101750.28;;;7.56;49.55
78121;BME280;67585;44.802;10.332;2023-02-28T11:46:54;101756.16;;;7.91;48.22
78121;BME280;67585;44.802;10.332;2023-02-28T11:49:32;101751.72;;;8.10;47.66
78121;BME280;67585;44.802;10.332;2023-02-28T11:57:35;101728.59;;;7.64;48.34
78121;BME280;67585;44.802;10.332;2023-02-28T12:05:46;101725.53;;;7.54;49.37
78121;BME280;67585;44.802;10.332;2023-02-28T12:11:19;101732.22;;;7.18;49.82
78121;BME280;67585;44.802;10.332;2023-02-28T12:20:05;101698.06;;;6.74;52.17
78121;BME280;67585;44.802;10.332;2023-02-28T12:26:27;101704.25;;;6.81;52.14
78121;BME280;67585;44.802;10.332;2023-02-28T12:28:39;101693.50;;;7.14;51.31
78121;BME280;67585;44.802;10.332;2023-02-28T12:31:29;101662.53;;;7.25;49.51
78121;BME280;67585;44.802;10.332;2023-02-28T12:34:20;101684.56;;;7.40;50.94
78121;BME280;67585;44.802;10.332;2023-02-28T12:36:49;101676.13;;;7.30;51.56
78121;BME280;67585;44.802;10.332;2023-02-28T12:39:23;101680.84;;;7.41;51.74
78121;BME280;67585;44.802;10.332;2023-02-28T12:41:52;101677.16;;;7.36;51.98
78121;BME280;67585;44.802;10.332;2023-02-28T12:46:51;101623.84;;;7.01;51.26
78121;BME280;67585;44.802;10.332;2023-02-28T12:49:37;101676.56;;;7.20;51.89
78121;BME280;67585;44.802;10.332;2023-02-28T12:52:05;101670.91;;;7.48;50.39
78121;BME280;67585;44.802;10.332;2023-02-28T12:54:46;101664.94;;;7.40;51.87
78121;BME280;67585;44.802;10.332;2023-02-28T12:57:41;101665.91;;;8.04;48.90
78121;BME280;67585;44.802;10.332;2023-02-28T13:00:14;101651.66;;;8.35;48.39
78121;BME280;67585;44.802;10.332;2023-02-28T13:08:28;101643.78;;;8.40;47.83
78121;BME280;67585;44.802;10.332;2023-02-28T13:11:02;101644.56;;;8.47;48.26
78121;BME280;67585;44.802;10.332;2023-02-28T13:13:29;101655.63;;;7.94;47.56
78121;BME280;67585;44.802;10.332;2023-02-28T13:16:05;101644.91;;;7.94;48.28
78121;BME280;67585;44.802;10.332;2023-02-28T13:18:50;101651.59;;;8.10;47.44
78121;BME280;67585;44.802;10.332;2023-02-28T13:21:28;101623.84;;;8.23;47.07
78121;BME280;67585;44.802;10.332;2023-02-28T13:26:23;101605.44;;;8.26;47.59
78121;BME280;67585;44.802;10.332;2023-02-28T13:32:40;101625.66;;;7.65;50.33
78121;BME280;67585;44.802;10.332;2023-02-28T13:42:32;101599.16;;;8.14;48.93
78121;BME280;67585;44.802;10.332;2023-02-28T13:50:35;101598.97;;;8.59;48.05
78121;BME280;67585;44.802;10.332;2023-02-28T14:06:29;101587.06;;;7.98;51.68
78121;BME280;67585;44.802;10.332;2023-02-28T14:10:02;101590.31;;;8.07;51.78
78121;BME280;67585;44.802;10.332;2023-02-28T14:11:56;101581.13;;;7.96;52.16
78121;BME280;67585;44.802;10.332;2023-02-28T14:17:00;101577.28;;;7.85;52.71
78121;BME280;67585;44.802;10.332;2023-02-28T14:19:30;101566.56;;;7.79;52.46
78121;BME280;67585;44.802;10.332;2023-02-28T14:30:40;101577.91;;;7.49;53.87
78121;BME280;67585;44.802;10.332;2023-02-28T14:33:23;101569.25;;;7.47;53.98
78121;BME280;67585;44.802;10.332;2023-02-28T14:38:52;101566.88;;;7.64;53.36
78121;BME280;67585;44.802;10.332;2023-02-28T14:41:33;101543.63;;;7.58;53.61
78121;BME280;67585;44.802;10.332;2023-02-28T14:44:33;101531.38;;;7.68;52.28
78121;BME280;67585;44.802;10.332;2023-02-28T14:47:00;101538.41;;;7.31;53.85
78121;BME280;67585;44.802;10.332;2023-02-28T14:49:32;101559.28;;;7.61;53.53
78121;BME280;67585;44.802;10.332;2023-02-28T14:52:15;101557.41;;;7.61;54.08
78121;BME280;67585;44.802;10.332;2023-02-28T14:54:43;101540.84;;;7.71;52.80
78121;BME280;67585;44.802;10.332;2023-02-28T14:57:29;101559.63;;;7.33;54.45
78121;BME280;67585;44.802;10.332;2023-02-28T15:00:12;101542.88;;;7.76;53.22
78121;BME280;67585;44.802;10.332;2023-02-28T15:02:39;101557.72;;;7.46;53.59
78121;BME280;67585;44.802;10.332;2023-02-28T15:07:43;101563.22;;;7.58;53.14
78121;BME280;67585;44.802;10.332;2023-02-28T15:10:25;101552.22;;;7.66;52.75
78121;BME280;67585;44.802;10.332;2023-02-28T15:13:05;101559.56;;;7.46;52.88
78121;BME280;67585;44.802;10.332;2023-02-28T15:15:41;101552.91;;;7.23;54.38
78121;BME280;67585;44.802;10.332;2023-02-28T15:18:15;101547.63;;;7.42;53.60